createdAt,value
2022-08-19T00:03:23.098Z,8.15
2022-08-19T00:05:52.150Z,8.68
2022-08-19T00:12:51.627Z,8.02
2022-08-19T00:16:42.872Z,9.10
2022-08-19T00:20:16.449Z,7.88
2022-08-19T00:23:16.739Z,8.55
2022-08-19T00:25:53.705Z,8.80
2022-08-19T00:32:45.926Z,8.38
2022-08-19T00:35:15.006Z,8.43
2022-08-19T00:38:55.512Z,8.73
2022-08-19T00:45:44.732Z,7.95
2022-08-19T00:48:48.913Z,7.47
2022-08-19T00:51:17.734Z,8.48
2022-08-19T00:57:23.897Z,8.57
2022-08-19T01:09:09.225Z,9.00
2022-08-19T01:16:33.938Z,7.90
2022-08-19T01:23:48.892Z,8.65
2022-08-19T01:26:20.193Z,7.63
2022-08-19T01:33:06.677Z,8.82
2022-08-19T01:35:37.565Z,8.70
2022-08-19T01:39:23.726Z,8.40
2022-08-19T01:41:55.491Z,8.07
2022-08-19T01:44:26.103Z,8.73
2022-08-19T01:48:01.987Z,8.63
2022-08-19T01:50:32.882Z,8.18
2022-08-19T01:57:27.235Z,8.27
2022-08-19T01:59:56.414Z,8.85
2022-08-19T02:03:00.322Z,7.78
2022-08-19T02:05:30.382Z,8.10
2022-08-19T02:12:24.019Z,8.05
2022-08-19T02:14:54.530Z,8.15
2022-08-19T02:17:52.802Z,8.70
2022-08-19T02:24:55.525Z,8.48
2022-08-19T02:28:37.566Z,7.80
2022-08-19T02:31:12.173Z,8.27
2022-08-19T02:38:28.257Z,9.05
2022-08-19T02:46:48.950Z,8.13
2022-08-19T02:54:06.995Z,8.50
2022-08-19T03:00:59.657Z,7.75
2022-08-19T03:04:02.963Z,7.75
2022-08-19T03:06:38.000Z,8.18
2022-08-19T03:09:39.293Z,8.70
2022-08-19T03:12:08.878Z,8.13
2022-08-19T03:14:38.918Z,7.78
2022-08-19T03:26:16.824Z,8.27
2022-08-19T03:42:38.500Z,7.95
2022-08-19T03:45:19.729Z,7.60
2022-08-19T04:00:37.987Z,8.43
2022-08-19T04:08:51.778Z,8.40
2022-08-19T04:11:23.233Z,7.90
2022-08-19T04:14:12.961Z,7.18
2022-08-19T04:17:39.048Z,7.55
2022-08-19T04:32:54.705Z,8.45
2022-08-19T04:35:25.035Z,8.45
2022-08-19T04:38:35.846Z,7.20
2022-08-19T04:41:23.854Z,7.22
2022-08-19T04:43:52.670Z,7.85
2022-08-19T04:46:37.542Z,7.47
2022-08-19T04:53:56.327Z,7.50
2022-08-19T04:56:27.518Z,8.18
2022-08-19T04:59:24.439Z,7.70
2022-08-19T05:01:53.627Z,7.95
2022-08-19T05:05:44.889Z,7.30
2022-08-19T05:08:19.736Z,7.80
2022-08-19T05:11:31.451Z,6.70
2022-08-19T05:14:01.081Z,7.70
2022-08-19T05:17:28.491Z,7.20
2022-08-19T05:24:12.194Z,6.80
2022-08-19T05:26:47.413Z,7.30
2022-08-19T05:29:23.922Z,6.80
2022-08-19T05:42:00.343Z,6.55
2022-08-19T05:44:33.039Z,7.20
2022-08-19T05:47:03.158Z,6.63
2022-08-19T05:49:33.037Z,6.60
2022-08-19T05:52:03.688Z,6.30
2022-08-19T05:54:32.790Z,7.75
2022-08-19T05:58:09.797Z,6.78
2022-08-19T06:05:03.476Z,7.03
2022-08-19T06:12:16.100Z,7.03
2022-08-19T06:14:48.384Z,7.28
2022-08-19T06:17:36.236Z,6.60
2022-08-19T06:20:09.852Z,6.20
2022-08-19T06:22:41.992Z,7.80
2022-08-19T06:25:12.825Z,8.75
2022-08-19T06:28:13.405Z,7.88
2022-08-19T06:30:34.480Z,7.95
2022-08-19T06:33:03.703Z,6.95
2022-08-19T06:35:33.892Z,6.68
2022-08-19T06:38:06.227Z,7.63
2022-08-19T06:40:36.757Z,7.53
2022-08-19T06:43:07.685Z,5.95
2022-08-19T06:45:41.757Z,6.30
2022-08-19T06:52:38.285Z,5.70
2022-08-19T06:55:08.610Z,6.63
2022-08-19T06:58:34.914Z,6.30
2022-08-19T07:01:09.184Z,7.43
2022-08-19T07:03:39.804Z,7.00
2022-08-19T07:06:43.545Z,7.50
2022-08-19T07:09:11.585Z,7.22
2022-08-19T07:11:41.869Z,6.80
2022-08-19T07:15:12.671Z,8.48
2022-08-19T07:21:56.898Z,5.88
2022-08-19T07:24:55.463Z,6.43
2022-08-19T07:31:49.105Z,6.47
2022-08-19T07:34:21.376Z,6.22
2022-08-19T07:36:56.768Z,5.57
2022-08-19T07:39:29.768Z,6.82
2022-08-19T07:42:19.143Z,5.70
2022-08-19T07:44:50.668Z,6.68
2022-08-19T07:47:49.615Z,6.30
2022-08-19T07:50:13.720Z,5.88
2022-08-19T07:53:08.306Z,5.95
2022-08-19T08:04:52.847Z,5.82
2022-08-19T08:11:49.948Z,5.63
2022-08-19T08:14:29.258Z,6.22
2022-08-19T08:18:12.229Z,5.57
2022-08-19T08:20:47.415Z,5.50
2022-08-19T08:23:26.320Z,5.18
2022-08-19T08:25:57.671Z,5.75
2022-08-19T08:33:00.665Z,5.65
2022-08-19T08:35:31.828Z,5.80
2022-08-19T08:38:06.215Z,6.32
2022-08-19T08:40:42.652Z,6.40
2022-08-19T08:43:26.694Z,5.40
2022-08-19T08:46:05.613Z,5.78
2022-08-19T08:49:08.596Z,5.18
2022-08-19T08:51:50.019Z,5.43
2022-08-19T08:54:37.618Z,5.97
2022-08-19T08:57:42.658Z,5.63
2022-08-19T09:00:22.136Z,6.15
2022-08-19T09:02:51.715Z,4.90
2022-08-19T09:05:48.645Z,5.00
2022-08-19T09:08:32.073Z,8.70
2022-08-19T09:11:09.848Z,6.07
2022-08-19T09:13:55.785Z,5.35
2022-08-19T09:16:32.418Z,7.05
2022-08-19T09:19:29.549Z,4.78
2022-08-19T09:21:59.065Z,4.68
2022-08-19T09:24:33.515Z,5.65
2022-08-19T09:27:08.316Z,5.43
2022-08-19T09:29:50.111Z,4.13
2022-08-19T09:32:26.825Z,4.55
2022-08-19T09:34:59.286Z,5.00
2022-08-19T09:37:32.000Z,4.85
2022-08-19T09:40:02.674Z,4.60
2022-08-19T09:42:35.339Z,4.65
2022-08-19T09:45:05.963Z,4.75
2022-08-19T09:47:46.279Z,4.90
2022-08-19T09:50:25.881Z,4.82
2022-08-19T09:52:57.408Z,4.57
2022-08-19T09:55:34.877Z,4.55
2022-08-19T09:58:09.938Z,4.60
2022-08-19T10:00:41.414Z,4.70
2022-08-19T10:03:10.113Z,4.70
2022-08-19T10:05:55.475Z,5.03
2022-08-19T10:08:34.016Z,4.07
2022-08-19T10:11:27.244Z,9.52
2022-08-19T10:13:56.204Z,4.75
2022-08-19T10:16:53.547Z,6.28
2022-08-19T10:19:25.563Z,3.80
2022-08-19T10:22:00.285Z,3.42
2022-08-19T10:24:30.127Z,4.07
2022-08-19T10:26:59.876Z,4.40
2022-08-19T10:29:35.600Z,3.83
2022-08-19T10:32:10.028Z,4.45
2022-08-19T10:34:48.094Z,3.60
2022-08-19T10:40:04.707Z,3.60
2022-08-19T10:42:34.647Z,3.53
2022-08-19T10:45:08.238Z,3.38
2022-08-19T10:48:15.733Z,3.72
2022-08-19T10:51:09.039Z,3.50
2022-08-19T10:53:37.891Z,4.03
2022-08-19T10:56:24.675Z,3.75
2022-08-19T10:58:53.775Z,3.53
2022-08-19T11:01:24.594Z,3.47
2022-08-19T11:04:28.869Z,3.45
2022-08-19T11:07:13.651Z,3.53
2022-08-19T11:09:44.441Z,3.15
2022-08-19T11:12:14.889Z,3.58
2022-08-19T11:14:44.712Z,3.47
2022-08-19T11:17:44.785Z,3.72
2022-08-19T11:20:15.419Z,3.22
2022-08-19T11:22:45.404Z,4.43
2022-08-19T11:25:19.179Z,3.90
2022-08-19T11:32:33.312Z,4.30
2022-08-19T11:35:04.787Z,4.43
2022-08-19T11:43:03.622Z,4.22
2022-08-19T11:45:34.724Z,4.55
2022-08-19T11:52:51.168Z,5.80
2022-08-19T11:55:26.517Z,3.53
2022-08-19T11:58:14.808Z,3.50
2022-08-19T12:05:44.391Z,3.20
2022-08-19T12:08:16.650Z,3.40
2022-08-19T12:10:46.656Z,3.10
2022-08-19T12:14:02.498Z,3.53
2022-08-19T12:16:34.321Z,4.70
2022-08-19T12:19:05.692Z,3.25
2022-08-19T12:22:38.413Z,3.67
2022-08-19T12:25:09.927Z,3.42
2022-08-19T12:32:12.479Z,3.85
2022-08-19T12:34:41.674Z,3.70
2022-08-19T12:37:10.738Z,3.67
2022-08-19T12:39:42.535Z,3.33
2022-08-19T12:42:14.561Z,3.63
2022-08-19T12:49:59.197Z,3.40
2022-08-19T12:52:29.331Z,3.50
2022-08-19T12:55:00.199Z,3.42
2022-08-19T12:57:54.112Z,4.05
2022-08-19T13:00:24.231Z,3.95
2022-08-19T13:02:54.541Z,4.18
2022-08-19T13:05:29.925Z,3.47
2022-08-19T13:08:15.356Z,3.75
2022-08-19T13:10:44.149Z,4.30
2022-08-19T13:13:14.662Z,4.00
2022-08-19T13:15:46.258Z,4.30
2022-08-19T13:18:29.560Z,3.83
2022-08-19T13:20:58.539Z,4.30
2022-08-19T13:23:27.324Z,3.95
2022-08-19T13:27:19.239Z,3.75
2022-08-19T13:34:31.294Z,4.20
2022-08-19T13:37:41.274Z,4.03
2022-08-19T13:44:21.800Z,4.10
2022-08-19T13:46:54.322Z,3.85
2022-08-19T13:50:09.718Z,4.32
2022-08-19T13:57:23.958Z,3.97
2022-08-19T14:04:25.903Z,4.38
2022-08-19T14:11:48.434Z,4.38
2022-08-19T14:14:19.031Z,4.45
2022-08-19T14:16:50.286Z,4.10
2022-08-19T14:19:51.016Z,4.57
2022-08-19T14:22:27.042Z,6.22
2022-08-19T14:24:56.116Z,9.93
2022-08-19T14:27:52.266Z,8.20
2022-08-19T14:30:28.681Z,49.80
2022-08-19T14:32:59.141Z,63.45
2022-08-19T14:35:28.999Z,45.22
2022-08-19T14:38:22.071Z,48.25
2022-08-19T14:41:10.306Z,43.25
2022-08-19T14:43:39.470Z,23.02
2022-08-19T14:46:12.083Z,12.95
2022-08-19T14:48:51.881Z,14.50
2022-08-19T14:51:24.424Z,16.40
2022-08-19T14:53:54.481Z,9.40
2022-08-19T14:56:27.847Z,8.90
2022-08-19T14:59:12.597Z,21.48
2022-08-19T15:01:43.401Z,10.25
2022-08-19T15:04:12.807Z,8.25
2022-08-19T15:06:45.602Z,5.43
2022-08-19T15:09:43.148Z,5.55
2022-08-19T15:12:11.899Z,9.27
2022-08-19T15:14:56.882Z,7.45
2022-08-19T15:17:41.394Z,4.43
2022-08-19T15:20:18.965Z,4.03
2022-08-19T15:22:48.019Z,3.75
2022-08-19T15:29:50.167Z,4.00
2022-08-19T15:32:28.835Z,3.70
2022-08-19T15:36:12.225Z,3.58
2022-08-19T15:43:30.083Z,3.95
2022-08-19T15:45:59.292Z,4.10
2022-08-19T15:49:49.743Z,3.95
2022-08-19T15:58:20.537Z,3.83
2022-08-19T16:05:29.281Z,4.20
2022-08-19T16:09:02.516Z,4.22
2022-08-19T16:11:39.419Z,4.15
2022-08-19T16:14:10.034Z,4.47
2022-08-19T16:17:12.794Z,4.00
2022-08-19T16:24:22.880Z,4.88
2022-08-19T16:27:20.295Z,4.30
2022-08-19T16:29:52.504Z,4.28
2022-08-19T16:32:24.283Z,4.55
2022-08-19T16:34:53.204Z,4.10
2022-08-19T16:37:51.000Z,4.70
2022-08-19T16:40:21.696Z,4.65
2022-08-19T16:42:52.469Z,4.20
2022-08-19T16:45:22.176Z,4.45
2022-08-19T16:47:54.783Z,4.90
2022-08-19T16:50:39.292Z,5.10
2022-08-19T16:54:22.673Z,4.95
2022-08-19T17:01:36.340Z,5.10
2022-08-19T17:04:05.833Z,4.93
2022-08-19T17:06:36.945Z,4.80
2022-08-19T17:09:16.361Z,4.75
2022-08-19T17:11:54.782Z,4.80
2022-08-19T17:14:23.671Z,4.75
2022-08-19T17:16:55.037Z,4.82
2022-08-19T17:19:24.047Z,4.40
2022-08-19T17:21:53.512Z,4.53
2022-08-19T17:24:22.484Z,4.70
2022-08-19T17:31:10.795Z,4.88
2022-08-19T17:38:32.318Z,4.65
2022-08-19T17:41:06.023Z,4.75
2022-08-19T17:43:39.996Z,5.18
2022-08-19T17:46:17.957Z,4.90
2022-08-19T17:51:27.453Z,4.70
2022-08-19T17:53:58.169Z,4.25
2022-08-19T17:56:28.960Z,4.78
2022-08-19T17:59:04.529Z,4.53
2022-08-19T18:01:52.021Z,5.03
2022-08-19T18:05:02.420Z,5.10
2022-08-19T18:08:33.010Z,5.40
2022-08-19T18:11:08.871Z,5.07
2022-08-19T18:13:38.581Z,5.50
2022-08-19T18:16:11.453Z,5.22
2022-08-19T18:19:11.678Z,5.53
2022-08-19T18:21:54.681Z,5.90
2022-08-19T18:24:23.567Z,5.00
2022-08-19T18:32:23.586Z,5.93
2022-08-19T18:34:57.422Z,5.63
2022-08-19T18:46:41.984Z,5.53
2022-08-19T18:49:43.362Z,5.60
2022-08-19T18:52:14.458Z,5.35
2022-08-19T18:54:44.403Z,4.53
2022-08-19T19:02:08.839Z,4.72
2022-08-19T19:05:14.500Z,4.55
2022-08-19T19:12:11.632Z,4.93
2022-08-19T19:14:49.355Z,4.68
2022-08-19T19:17:26.584Z,4.72
2022-08-19T19:19:55.347Z,4.47
2022-08-19T19:22:25.162Z,4.63
2022-08-19T19:24:55.620Z,4.47
2022-08-19T19:31:52.832Z,4.63
2022-08-19T19:34:29.504Z,4.60
2022-08-19T19:38:11.608Z,4.90
2022-08-19T19:41:52.880Z,4.43
2022-08-19T19:49:00.074Z,4.93
2022-08-19T19:51:31.042Z,5.68
2022-08-19T19:54:32.200Z,5.07
2022-08-19T19:57:58.912Z,5.47
2022-08-19T20:00:28.073Z,4.95
2022-08-19T20:04:02.004Z,5.38
2022-08-19T20:07:11.090Z,5.43
2022-08-19T20:09:58.695Z,5.95
2022-08-19T20:12:28.200Z,4.82
2022-08-19T20:14:57.297Z,5.70
2022-08-19T20:17:32.692Z,5.57
2022-08-19T20:20:02.629Z,5.85
2022-08-19T20:28:00.127Z,6.43
2022-08-19T20:30:33.292Z,5.95
2022-08-19T20:33:06.965Z,5.45
2022-08-19T20:44:41.754Z,5.55
2022-08-19T20:47:12.787Z,5.35
2022-08-19T20:49:42.399Z,5.80
2022-08-19T20:52:12.362Z,5.78
2022-08-19T20:54:41.655Z,5.95
2022-08-19T20:57:22.694Z,5.72
2022-08-19T20:59:52.322Z,5.40
2022-08-19T21:07:04.589Z,6.05
2022-08-19T21:09:43.025Z,5.03
2022-08-19T21:12:14.478Z,5.50
2022-08-19T21:14:45.118Z,5.85
2022-08-19T21:17:13.979Z,5.20
2022-08-19T21:19:42.765Z,6.10
2022-08-19T21:22:13.065Z,5.68
2022-08-19T21:24:43.247Z,5.78
2022-08-19T21:27:15.003Z,5.80
2022-08-19T21:29:44.321Z,5.90
2022-08-19T21:32:14.588Z,5.25
2022-08-19T21:34:46.528Z,5.70
2022-08-19T21:37:26.144Z,5.68
2022-08-19T21:39:55.509Z,5.22
2022-08-19T21:42:27.423Z,6.35
2022-08-19T21:44:57.970Z,5.55
2022-08-19T21:47:58.288Z,5.20
2022-08-19T21:51:38.161Z,5.43
2022-08-19T21:58:43.091Z,5.55
2022-08-19T22:01:12.303Z,5.60
2022-08-19T22:04:12.348Z,5.88
2022-08-19T22:11:23.833Z,5.70
2022-08-19T22:18:28.451Z,5.65
2022-08-19T22:20:58.384Z,5.90
2022-08-19T22:23:27.836Z,5.80
2022-08-19T22:35:04.832Z,5.35
2022-08-19T22:38:38.647Z,4.95
2022-08-19T22:41:11.706Z,5.15
2022-08-19T22:43:40.764Z,4.80
2022-08-19T22:46:16.793Z,4.40
2022-08-19T22:49:00.573Z,5.22
2022-08-19T22:56:10.864Z,5.25
2022-08-19T22:59:55.962Z,4.50
2022-08-19T23:02:34.633Z,4.72
2022-08-19T23:05:50.705Z,4.78
2022-08-19T23:08:29.348Z,4.57
2022-08-19T23:10:58.573Z,4.32
2022-08-19T23:13:31.828Z,4.60
2022-08-19T23:16:00.831Z,4.47
2022-08-19T23:18:30.124Z,4.85
2022-08-19T23:20:59.375Z,3.95
2022-08-19T23:23:29.991Z,3.70
2022-08-19T23:25:59.681Z,4.85
2022-08-19T23:34:06.874Z,4.30
2022-08-19T23:36:38.264Z,4.68
2022-08-19T23:39:07.335Z,4.30
2022-08-19T23:42:40.058Z,4.15
2022-08-19T23:45:10.377Z,4.40
2022-08-19T23:47:47.472Z,4.05
2022-08-19T23:50:17.285Z,3.97
2022-08-19T23:52:51.356Z,4.10
2022-08-19T23:55:37.017Z,4.70
2022-08-19T23:58:16.776Z,4.40
